createdAt,value
2023-04-16T00:01:13.657Z,7.07
2023-04-16T00:03:41.023Z,9.73
2023-04-16T00:06:08.203Z,8.67
2023-04-16T00:08:35.922Z,7.20
2023-04-16T00:11:03.051Z,6.53
2023-04-16T00:13:29.985Z,5.97
2023-04-16T00:15:57.144Z,10.47
2023-04-16T00:18:24.258Z,13.43
2023-04-16T00:20:51.791Z,8.27
2023-04-16T00:23:18.818Z,11.57
2023-04-16T00:25:45.850Z,7.80
2023-04-16T00:28:12.887Z,6.30
2023-04-16T00:30:41.081Z,8.30
2023-04-16T00:33:08.287Z,9.67
2023-04-16T00:35:35.210Z,8.80
2023-04-16T00:38:02.364Z,8.43
2023-04-16T00:40:30.118Z,8.33
2023-04-16T00:42:57.059Z,6.70
2023-04-16T00:45:24.106Z,9.20
2023-04-16T00:47:51.268Z,6.17
2023-04-16T00:50:18.772Z,10.27
2023-04-16T00:52:47.677Z,7.53
2023-04-16T00:55:17.711Z,9.20
2023-04-16T00:57:45.961Z,6.50
2023-04-16T01:00:13.595Z,5.87
2023-04-16T01:02:40.869Z,6.97
2023-04-16T01:05:08.553Z,7.27
2023-04-16T01:07:35.747Z,8.80
2023-04-16T01:10:04.133Z,8.23
2023-04-16T01:12:32.581Z,9.50
2023-04-16T01:14:59.891Z,7.23
2023-04-16T01:17:26.892Z,7.13
2023-04-16T01:19:53.929Z,7.43
2023-04-16T01:22:20.971Z,6.53
2023-04-16T01:24:48.448Z,5.40
2023-04-16T01:27:15.790Z,5.37
2023-04-16T01:29:43.007Z,7.20
2023-04-16T01:32:10.599Z,7.40
2023-04-16T01:34:40.807Z,9.47
2023-04-16T01:37:10.984Z,7.37
2023-04-16T01:39:37.970Z,7.30
2023-04-16T01:42:05.457Z,8.60
2023-04-16T01:47:53.770Z,7.60
2023-04-16T01:50:21.817Z,10.40
2023-04-16T01:52:48.833Z,6.43
2023-04-16T01:55:15.931Z,8.07
2023-04-16T01:57:43.024Z,8.50
2023-04-16T02:00:11.648Z,6.83
2023-04-16T02:02:49.322Z,7.10
2023-04-16T02:05:24.463Z,8.43
2023-04-16T02:07:51.492Z,8.03
2023-04-16T02:10:18.529Z,7.77
2023-04-16T02:12:47.728Z,11.73
2023-04-16T02:15:16.426Z,8.10
2023-04-16T02:17:43.872Z,7.73
2023-04-16T02:20:11.410Z,7.17
2023-04-16T02:22:48.759Z,9.53
2023-04-16T02:25:18.963Z,7.17
2023-04-16T02:27:47.836Z,7.63
2023-04-16T02:30:25.310Z,10.87
2023-04-16T02:32:53.541Z,9.30
2023-04-16T02:35:21.282Z,7.07
2023-04-16T02:37:48.504Z,5.20
2023-04-16T02:40:15.688Z,8.37
2023-04-16T02:42:42.563Z,7.23
2023-04-16T02:45:10.293Z,5.87
2023-04-16T02:47:37.344Z,7.90
2023-04-16T02:50:04.586Z,8.77
2023-04-16T02:52:32.784Z,8.50
2023-04-16T02:55:00.519Z,10.07
2023-04-16T02:57:27.438Z,9.37
2023-04-16T02:59:54.401Z,6.47
2023-04-16T03:02:21.674Z,9.00
2023-04-16T03:04:48.741Z,7.83
2023-04-16T03:07:15.981Z,6.63
2023-04-16T03:09:43.112Z,6.97
2023-04-16T03:12:10.372Z,8.37
2023-04-16T03:14:37.305Z,8.53
2023-04-16T03:17:04.336Z,7.27
2023-04-16T03:19:31.350Z,4.57
2023-04-16T03:21:58.302Z,6.40
2023-04-16T03:24:26.156Z,8.97
2023-04-16T03:26:53.319Z,6.47
2023-04-16T03:29:22.407Z,9.07
2023-04-16T03:31:49.418Z,7.67
2023-04-16T03:34:16.339Z,6.43
2023-04-16T03:36:43.646Z,7.77
2023-04-16T03:39:11.188Z,6.83
2023-04-16T03:41:38.534Z,6.67
2023-04-16T03:44:05.533Z,10.77
2023-04-16T03:46:33.528Z,8.07
2023-04-16T03:49:00.958Z,8.90
2023-04-16T03:51:28.758Z,8.80
2023-04-16T03:53:56.557Z,11.60
2023-04-16T03:56:24.635Z,19.37
2023-04-16T03:58:53.153Z,14.53
2023-04-16T04:01:20.077Z,11.70
2023-04-16T04:03:47.581Z,9.33
2023-04-16T04:06:15.698Z,10.47
2023-04-16T04:08:43.343Z,5.53
2023-04-16T04:11:10.812Z,9.07
2023-04-16T04:13:39.628Z,6.67
2023-04-16T04:16:06.973Z,7.90
2023-04-16T04:18:33.976Z,4.90
2023-04-16T04:21:06.228Z,8.93
2023-04-16T04:23:34.563Z,8.90
2023-04-16T04:26:03.918Z,9.50
2023-04-16T04:28:32.267Z,9.60
2023-04-16T04:31:00.189Z,9.80
2023-04-16T04:33:29.033Z,8.80
2023-04-16T04:35:56.034Z,5.63
2023-04-16T04:38:25.322Z,6.60
2023-04-16T04:40:54.048Z,6.83
2023-04-16T04:43:23.177Z,8.57
2023-04-16T04:45:50.993Z,9.33
2023-04-16T04:48:18.488Z,13.90
2023-04-16T04:50:46.776Z,12.93
2023-04-16T04:53:15.096Z,9.20
2023-04-16T04:55:42.864Z,8.37
2023-04-16T04:58:09.915Z,9.53
2023-04-16T05:00:37.687Z,10.40
2023-04-16T05:03:06.711Z,7.60
2023-04-16T05:05:33.682Z,8.67
2023-04-16T05:08:00.756Z,6.90
2023-04-16T05:10:28.008Z,10.90
2023-04-16T05:12:55.022Z,6.37
2023-04-16T05:15:22.263Z,9.03
2023-04-16T05:17:49.212Z,7.60
2023-04-16T05:20:16.165Z,8.20
2023-04-16T05:22:43.159Z,9.40
2023-04-16T05:25:10.472Z,8.83
2023-04-16T05:27:37.519Z,8.97
2023-04-16T05:30:05.449Z,9.10
2023-04-16T05:32:33.139Z,11.37
2023-04-16T05:35:00.153Z,13.57
2023-04-16T05:37:27.242Z,8.80
2023-04-16T05:39:54.227Z,9.33
2023-04-16T05:42:21.231Z,12.13
2023-04-16T05:44:48.342Z,10.73
2023-04-16T05:47:15.625Z,12.83
2023-04-16T05:49:42.612Z,16.23
2023-04-16T05:52:09.866Z,18.70
2023-04-16T05:54:36.870Z,16.70
2023-04-16T05:57:03.922Z,16.63
2023-04-16T05:59:31.044Z,21.00
2023-04-16T06:01:58.085Z,15.97
2023-04-16T06:04:25.112Z,26.57
2023-04-16T06:06:52.124Z,22.90
2023-04-16T06:09:19.275Z,20.93
2023-04-16T06:11:46.330Z,21.50
2023-04-16T06:14:13.554Z,30.03
2023-04-16T06:16:40.818Z,20.63
2023-04-16T06:19:07.966Z,19.93
2023-04-16T06:21:35.184Z,20.00
2023-04-16T06:24:02.239Z,19.23
2023-04-16T06:26:29.413Z,18.63
2023-04-16T06:28:56.691Z,17.77
2023-04-16T06:31:24.706Z,23.30
2023-04-16T06:33:52.111Z,18.90
2023-04-16T06:36:19.150Z,20.07
2023-04-16T06:38:46.662Z,22.20
2023-04-16T06:41:14.788Z,21.40
2023-04-16T06:43:41.823Z,20.43
2023-04-16T06:46:48.825Z,22.07
2023-04-16T06:49:16.115Z,28.37
2023-04-16T06:51:43.228Z,19.30
2023-04-16T06:54:10.378Z,18.20
2023-04-16T06:56:37.579Z,20.50
2023-04-16T06:59:04.824Z,21.73
2023-04-16T07:01:31.903Z,21.60
2023-04-16T07:03:59.994Z,25.27
2023-04-16T07:06:27.284Z,26.23
2023-04-16T07:08:54.326Z,21.97
2023-04-16T07:11:22.571Z,19.70
2023-04-16T07:13:51.220Z,23.70
2023-04-16T07:16:18.290Z,26.30
2023-04-16T07:18:45.585Z,21.47
2023-04-16T07:21:12.787Z,23.53
2023-04-16T07:23:39.794Z,22.23
2023-04-16T07:26:06.824Z,21.77
2023-04-16T07:28:33.936Z,23.00
2023-04-16T07:31:01.189Z,25.73
2023-04-16T07:33:28.155Z,25.77
2023-04-16T07:35:55.816Z,26.60
2023-04-16T07:38:23.370Z,30.70
2023-04-16T07:40:59.471Z,29.10
2023-04-16T07:43:26.499Z,29.90
2023-04-16T07:45:53.435Z,27.20
2023-04-16T07:48:20.672Z,32.47
2023-04-16T07:50:48.085Z,24.90
2023-04-16T07:53:14.968Z,25.10
2023-04-16T07:55:41.888Z,19.07
2023-04-16T07:58:09.684Z,20.30
2023-04-16T08:00:36.733Z,21.47
2023-04-16T08:03:04.538Z,23.50
2023-04-16T08:05:31.794Z,27.07
2023-04-16T08:07:58.831Z,25.53
2023-04-16T08:10:25.876Z,19.53
2023-04-16T08:12:53.013Z,18.30
2023-04-16T08:15:20.155Z,19.90
2023-04-16T08:17:47.176Z,27.93
2023-04-16T08:20:17.624Z,23.50
2023-04-16T08:22:46.719Z,24.83
2023-04-16T08:25:14.589Z,22.07
2023-04-16T08:27:41.526Z,21.60
2023-04-16T08:30:08.597Z,25.13
2023-04-16T08:32:35.602Z,22.97
2023-04-16T08:35:02.848Z,22.57
2023-04-16T08:37:31.329Z,22.43
2023-04-16T08:39:58.261Z,19.33
2023-04-16T08:42:40.778Z,21.20
2023-04-16T08:45:18.042Z,21.33
2023-04-16T08:47:50.262Z,27.43
2023-04-16T08:50:25.485Z,23.37
2023-04-16T08:52:53.668Z,35.10
2023-04-16T08:55:31.045Z,23.17
2023-04-16T08:57:59.589Z,18.10
2023-04-16T09:00:27.112Z,23.83
2023-04-16T09:02:54.383Z,28.30
2023-04-16T09:05:25.625Z,20.07
2023-04-16T09:07:54.537Z,19.60
2023-04-16T09:10:22.258Z,17.27
2023-04-16T09:12:49.904Z,19.23
2023-04-16T09:15:16.817Z,16.47
2023-04-16T09:17:43.785Z,17.27
2023-04-16T09:20:11.332Z,18.83
2023-04-16T09:22:40.318Z,15.07
2023-04-16T09:25:08.315Z,15.20
2023-04-16T09:27:36.269Z,18.10
2023-04-16T09:30:27.501Z,17.57
2023-04-16T09:33:23.277Z,16.03
2023-04-16T09:35:52.677Z,20.37
2023-04-16T09:38:20.729Z,15.67
2023-04-16T09:40:47.922Z,14.30
2023-04-16T09:43:17.188Z,16.40
2023-04-16T09:45:54.398Z,12.63
2023-04-16T09:48:30.071Z,16.83
2023-04-16T09:50:57.892Z,15.60
2023-04-16T09:53:29.748Z,13.53
2023-04-16T09:56:01.525Z,14.67
2023-04-16T09:58:29.180Z,16.27
2023-04-16T10:01:18.244Z,13.67
2023-04-16T10:03:49.944Z,13.97
2023-04-16T10:06:21.188Z,14.30
2023-04-16T10:08:50.342Z,13.27
2023-04-16T10:11:18.349Z,14.73
2023-04-16T10:13:46.004Z,16.03
2023-04-16T10:16:13.457Z,15.27
2023-04-16T10:18:42.452Z,15.63
2023-04-16T10:21:12.773Z,13.90
2023-04-16T10:23:40.637Z,15.43
2023-04-16T10:26:08.775Z,15.70
2023-04-16T10:28:36.367Z,15.10
2023-04-16T10:31:06.340Z,16.13
2023-04-16T10:33:40.606Z,16.13
2023-04-16T10:36:09.584Z,12.50
2023-04-16T10:38:40.360Z,19.50
2023-04-16T10:41:09.224Z,12.77
2023-04-16T10:43:41.892Z,10.73
2023-04-16T10:46:26.542Z,13.57
2023-04-16T10:48:55.685Z,12.03
2023-04-16T10:51:36.191Z,9.07
2023-04-16T10:54:09.018Z,12.60
2023-04-16T10:56:37.543Z,9.50
2023-04-16T10:59:08.934Z,10.00
2023-04-16T11:01:37.204Z,13.90
2023-04-16T11:04:20.048Z,11.80
2023-04-16T11:07:06.670Z,6.70
2023-04-16T11:09:50.542Z,7.97
2023-04-16T11:12:18.807Z,8.87
2023-04-16T11:15:02.935Z,7.73
2023-04-16T11:17:38.138Z,6.37
2023-04-16T11:20:19.882Z,11.33
2023-04-16T11:22:49.806Z,11.33
2023-04-16T11:25:21.661Z,14.13
2023-04-16T11:27:49.803Z,9.37
2023-04-16T11:30:17.577Z,13.13
2023-04-16T11:32:45.376Z,7.23
2023-04-16T11:35:17.682Z,10.20
2023-04-16T11:37:46.300Z,10.70
2023-04-16T11:40:13.605Z,7.80
2023-04-16T11:42:41.762Z,9.73
2023-04-16T11:45:10.627Z,9.63
2023-04-16T11:47:53.077Z,12.13
2023-04-16T11:50:28.252Z,13.00
2023-04-16T11:52:58.141Z,7.80
2023-04-16T11:55:25.497Z,10.63
2023-04-16T11:57:52.774Z,7.57
2023-04-16T12:00:23.708Z,8.47
2023-04-16T12:02:54.326Z,8.83
2023-04-16T12:05:39.382Z,8.20
2023-04-16T12:08:09.690Z,7.60
2023-04-16T12:10:59.665Z,9.37
2023-04-16T12:13:26.664Z,12.33
2023-04-16T12:15:56.020Z,11.20
2023-04-16T12:18:27.260Z,8.00
2023-04-16T12:20:54.608Z,9.00
2023-04-16T12:23:30.017Z,10.53
2023-04-16T12:26:02.676Z,13.60
2023-04-16T12:28:34.940Z,9.17
2023-04-16T12:31:03.292Z,9.50
2023-04-16T12:33:31.095Z,12.03
2023-04-16T12:35:58.290Z,10.57
2023-04-16T12:38:26.303Z,7.93
2023-04-16T12:40:56.830Z,8.43
2023-04-16T12:43:24.430Z,13.00
2023-04-16T12:45:51.419Z,11.53
2023-04-16T12:48:18.452Z,9.63
2023-04-16T12:50:46.086Z,9.50
2023-04-16T12:53:13.279Z,7.67
2023-04-16T12:55:40.436Z,11.33
2023-04-16T12:58:11.126Z,11.53
2023-04-16T13:00:40.551Z,10.60
2023-04-16T13:03:07.879Z,8.53
2023-04-16T13:05:35.354Z,11.30
2023-04-16T13:08:02.611Z,7.37
2023-04-16T13:10:30.105Z,8.43
2023-04-16T13:12:57.446Z,9.97
2023-04-16T13:15:24.632Z,9.33
2023-04-16T13:17:51.827Z,8.03
2023-04-16T13:20:19.239Z,9.13
2023-04-16T13:22:46.367Z,9.33
2023-04-16T13:25:13.252Z,12.43
2023-04-16T13:27:40.283Z,13.57
2023-04-16T13:30:07.880Z,9.70
2023-04-16T13:32:34.994Z,14.43
2023-04-16T13:35:01.902Z,8.57
2023-04-16T13:37:31.002Z,8.10
2023-04-16T13:39:58.123Z,8.40
2023-04-16T13:42:25.070Z,12.00
2023-04-16T13:44:54.220Z,11.43
2023-04-16T13:47:21.874Z,11.93
2023-04-16T13:50:09.196Z,9.93
2023-04-16T13:52:36.421Z,9.00
2023-04-16T13:55:04.146Z,10.60
2023-04-16T13:57:32.140Z,10.27
2023-04-16T13:59:59.108Z,7.10
2023-04-16T14:02:26.768Z,8.57
2023-04-16T14:04:53.955Z,8.83
2023-04-16T14:07:22.699Z,7.77
2023-04-16T14:09:49.637Z,11.73
2023-04-16T14:12:16.760Z,6.17
2023-04-16T14:14:43.718Z,8.17
2023-04-16T14:17:10.888Z,9.17
2023-04-16T14:19:37.876Z,11.13
2023-04-16T14:22:04.818Z,9.30
2023-04-16T14:24:31.769Z,8.63
2023-04-16T14:26:58.723Z,11.03
2023-04-16T14:29:25.902Z,8.53
2023-04-16T14:31:52.986Z,8.63
2023-04-16T14:34:19.957Z,10.40
2023-04-16T14:36:46.990Z,8.90
2023-04-16T14:39:13.986Z,13.43
2023-04-16T14:41:41.321Z,10.67
2023-04-16T14:44:08.356Z,8.93
2023-04-16T14:46:36.176Z,7.47
2023-04-16T14:51:45.498Z,5.93
2023-04-16T14:54:12.486Z,10.03
2023-04-16T14:56:39.459Z,19.97
2023-04-16T14:59:06.870Z,7.80
2023-04-16T15:01:34.701Z,7.57
2023-04-16T15:04:03.064Z,9.07
2023-04-16T15:06:30.194Z,7.57
2023-04-16T15:08:57.125Z,6.63
2023-04-16T15:11:24.046Z,6.97
2023-04-16T15:13:51.042Z,7.73
2023-04-16T15:16:18.502Z,9.93
2023-04-16T15:18:45.745Z,10.53
2023-04-16T15:21:12.893Z,7.63
2023-04-16T15:23:39.905Z,7.23
2023-04-16T15:26:06.962Z,7.03
2023-04-16T15:28:33.902Z,7.77
2023-04-16T15:31:01.210Z,10.10
2023-04-16T15:33:28.385Z,6.27
2023-04-16T15:35:55.369Z,7.50
2023-04-16T15:38:22.391Z,8.73
2023-04-16T15:40:49.563Z,6.97
2023-04-16T15:43:16.860Z,9.00
2023-04-16T15:45:43.940Z,6.83
2023-04-16T15:48:10.980Z,6.20
2023-04-16T15:50:38.067Z,6.47
2023-04-16T15:53:05.072Z,6.43
2023-04-16T15:55:32.056Z,7.00
2023-04-16T15:57:58.957Z,8.87
2023-04-16T16:00:26.258Z,7.33
2023-04-16T16:02:53.411Z,7.63
2023-04-16T16:05:20.534Z,10.07
2023-04-16T16:07:47.755Z,6.20
2023-04-16T16:10:15.050Z,6.23
2023-04-16T16:12:42.463Z,6.63
2023-04-16T16:15:11.261Z,11.47
2023-04-16T16:17:39.121Z,8.20
2023-04-16T16:20:09.583Z,7.80
2023-04-16T16:22:38.287Z,5.87
2023-04-16T16:25:06.131Z,7.60
2023-04-16T16:27:33.310Z,7.13
2023-04-16T16:30:01.124Z,6.90
2023-04-16T16:32:28.303Z,10.83
2023-04-16T16:34:56.061Z,9.20
2023-04-16T16:37:23.116Z,7.60
2023-04-16T16:39:50.015Z,9.53
2023-04-16T16:42:18.777Z,17.23
2023-04-16T16:44:49.072Z,6.47
2023-04-16T16:47:15.992Z,5.87
2023-04-16T16:49:42.854Z,5.10
2023-04-16T16:52:09.736Z,5.63
2023-04-16T16:54:36.905Z,7.17
2023-04-16T16:57:03.869Z,7.13
2023-04-16T16:59:30.996Z,6.93
2023-04-16T17:05:18.956Z,9.10
2023-04-16T17:07:46.012Z,6.27
2023-04-16T17:10:20.123Z,10.00
2023-04-16T17:12:49.542Z,5.87
2023-04-16T17:15:20.532Z,6.43
2023-04-16T17:17:48.713Z,6.90
2023-04-16T17:20:16.034Z,7.47
2023-04-16T17:22:43.140Z,12.53
2023-04-16T17:25:10.662Z,14.03
2023-04-16T17:27:37.729Z,12.93
2023-04-16T17:30:05.869Z,13.13
2023-04-16T17:32:34.404Z,10.33
2023-04-16T17:35:04.252Z,11.53
2023-04-16T17:37:33.145Z,9.97
2023-04-16T17:40:00.512Z,9.23
2023-04-16T17:42:27.698Z,6.80
2023-04-16T17:51:35.927Z,25.63
2023-04-16T17:54:03.549Z,10.10
2023-04-16T17:56:30.494Z,7.90
2023-04-16T17:58:57.513Z,6.27
2023-04-16T18:01:24.552Z,7.23
2023-04-16T18:03:51.788Z,8.07
2023-04-16T18:06:19.846Z,6.00
2023-04-16T18:08:46.784Z,7.97
2023-04-16T18:11:13.742Z,6.07
2023-04-16T18:13:40.875Z,5.30
2023-04-16T18:16:14.333Z,7.73
2023-04-16T18:18:41.379Z,4.47
2023-04-16T18:21:08.545Z,6.57
2023-04-16T18:23:35.753Z,7.20
2023-04-16T18:26:03.194Z,8.90
2023-04-16T18:28:30.165Z,7.13
2023-04-16T18:30:59.016Z,4.97
2023-04-16T18:33:49.937Z,3.67
2023-04-16T18:36:13.216Z,8.47
2023-04-16T18:38:52.939Z,3.83
2023-04-16T18:41:24.589Z,5.87
2023-04-16T18:43:51.731Z,10.07
2023-04-16T18:46:18.823Z,4.93
2023-04-16T18:48:45.914Z,7.27
2023-04-16T18:51:15.465Z,5.47
2023-04-16T18:53:44.509Z,6.63
2023-04-16T18:56:11.741Z,6.17
2023-04-16T18:58:38.944Z,6.07
2023-04-16T19:01:11.045Z,4.20
2023-04-16T19:03:38.854Z,4.47
2023-04-16T19:06:06.652Z,5.10
2023-04-16T19:08:33.802Z,4.43
2023-04-16T19:11:00.838Z,14.97
2023-04-16T19:13:27.969Z,20.03
2023-04-16T19:16:00.047Z,6.23
2023-04-16T19:18:27.230Z,7.00
2023-04-16T19:21:01.318Z,6.23
2023-04-16T19:23:29.164Z,12.63
2023-04-16T19:25:56.901Z,8.60
2023-04-16T19:28:25.305Z,5.57
2023-04-16T19:30:53.406Z,8.27
2023-04-16T19:33:20.461Z,8.67
2023-04-16T19:35:47.522Z,6.20
2023-04-16T19:38:14.553Z,8.07
2023-04-16T19:40:45.821Z,6.83
2023-04-16T19:43:13.098Z,5.90
2023-04-16T19:45:47.473Z,4.73
2023-04-16T19:48:14.667Z,6.97
2023-04-16T19:50:42.564Z,5.93
2023-04-16T19:53:10.320Z,6.73
2023-04-16T19:55:39.601Z,5.37
2023-04-16T19:58:06.799Z,8.00
2023-04-16T20:00:36.514Z,10.73
2023-04-16T20:03:04.629Z,6.47
2023-04-16T20:05:31.953Z,5.23
2023-04-16T20:07:58.933Z,7.03
2023-04-16T20:10:26.618Z,6.53
2023-04-16T20:12:53.720Z,6.77
2023-04-16T20:15:20.956Z,6.07
2023-04-16T20:17:47.959Z,6.67
2023-04-16T20:20:15.885Z,5.57
2023-04-16T20:22:43.278Z,5.80
2023-04-16T20:25:10.358Z,6.13
2023-04-16T20:27:37.351Z,8.70
2023-04-16T20:30:06.107Z,8.50
2023-04-16T20:32:33.299Z,7.73
2023-04-16T20:35:00.418Z,8.07
2023-04-16T20:37:29.365Z,8.23
2023-04-16T20:39:56.489Z,7.67
2023-04-16T20:42:26.296Z,5.60
2023-04-16T20:44:56.466Z,6.93
2023-04-16T20:47:23.957Z,7.97
2023-04-16T20:49:53.055Z,8.07
2023-04-16T20:52:21.427Z,10.23
2023-04-16T20:54:51.865Z,8.53
2023-04-16T20:57:19.091Z,6.43
2023-04-16T21:03:14.755Z,12.77
2023-04-16T21:05:41.997Z,12.97
2023-04-16T21:08:08.894Z,12.83
2023-04-16T21:10:36.049Z,10.23
2023-04-16T21:13:03.206Z,11.73
2023-04-16T21:15:30.979Z,10.00
2023-04-16T21:17:57.855Z,9.90
2023-04-16T21:20:24.838Z,8.57
2023-04-16T21:22:56.750Z,8.13
2023-04-16T21:25:24.123Z,9.47
2023-04-16T21:27:51.559Z,6.30
2023-04-16T21:30:18.595Z,6.93
2023-04-16T21:32:45.819Z,6.53
2023-04-16T21:35:12.886Z,7.37
2023-04-16T21:37:39.958Z,6.10
2023-04-16T21:40:08.206Z,7.97
2023-04-16T21:42:42.530Z,7.40
2023-04-16T21:45:10.455Z,7.00
2023-04-16T21:47:38.412Z,8.10
2023-04-16T21:50:06.341Z,6.73
2023-04-16T21:52:33.412Z,5.97
2023-04-16T21:55:00.767Z,8.33
2023-04-16T21:57:27.713Z,9.10
2023-04-16T21:59:54.864Z,6.07
2023-04-16T22:02:22.004Z,8.30
2023-04-16T22:04:49.082Z,8.70
2023-04-16T22:07:17.001Z,9.20
2023-04-16T22:09:44.109Z,9.07
2023-04-16T22:12:11.232Z,10.53
2023-04-16T22:14:44.098Z,10.87
2023-04-16T22:17:17.215Z,9.70
2023-04-16T22:19:44.633Z,9.87
2023-04-16T22:22:11.779Z,9.53
2023-04-16T22:24:38.772Z,8.57
2023-04-16T22:27:06.418Z,12.90
2023-04-16T22:29:33.637Z,12.97
2023-04-16T22:32:02.011Z,10.67
2023-04-16T22:34:29.447Z,10.60
2023-04-16T22:36:57.012Z,8.93
2023-04-16T22:39:24.092Z,8.00
2023-04-16T22:41:51.597Z,8.03
2023-04-16T22:44:18.741Z,10.70
2023-04-16T22:46:46.899Z,13.27
2023-04-16T22:49:14.065Z,9.73
2023-04-16T22:51:40.980Z,10.40
2023-04-16T22:54:09.150Z,12.00
2023-04-16T22:56:36.071Z,8.07
2023-04-16T22:59:03.061Z,9.37
2023-04-16T23:01:30.148Z,10.40
2023-04-16T23:03:57.227Z,9.60
2023-04-16T23:06:24.241Z,8.23
2023-04-16T23:08:51.334Z,12.30
2023-04-16T23:11:18.392Z,8.77
2023-04-16T23:13:45.741Z,6.70
2023-04-16T23:16:12.659Z,9.80
2023-04-16T23:18:39.622Z,9.83
2023-04-16T23:21:06.537Z,9.50
2023-04-16T23:23:33.485Z,8.17
2023-04-16T23:26:02.779Z,9.37
2023-04-16T23:28:29.733Z,7.07
2023-04-16T23:30:56.803Z,8.10
2023-04-16T23:33:23.777Z,7.40
2023-04-16T23:35:50.723Z,7.40
2023-04-16T23:38:17.692Z,8.20
2023-04-16T23:40:44.625Z,9.43
2023-04-16T23:43:11.619Z,7.93
2023-04-16T23:45:38.788Z,6.77
2023-04-16T23:48:06.210Z,8.23
2023-04-16T23:50:33.225Z,12.03
2023-04-16T23:53:00.206Z,8.87
2023-04-16T23:55:27.241Z,7.77
2023-04-16T23:57:54.197Z,7.40
